Smith Valley, Nevada Weather observations

Data are for 10 minute period ending at time listed.
 Day   Time   Solar   Ave.   Ave.  Ave.  Vector  Max.   Baro.   Total    
  of    of     Rad.   Air    Rel.  Wind   Wind   Wind  Press.  Precip.   
Year   Day            Temp.  Hum.  Speed  Dir.   Gust                    
2014   (PST)  Kw/m2    F      %     mph   deg.    mph    mb.     in.     
-------------------------------------------------------------------------
 204    6:50   0.14   63.5    40    2.9   119     5.6   854.5    0.00 
 204    7:00   0.19   63.8    35    2.2   163     6.9   854.5    0.00 
 204    7:10   0.33   67.4    29    3.1   236     6.5   854.5    0.00 
 204    7:20   0.23   70.3    25    3.6   273     5.8   854.6    0.00 
 204    7:30   0.32   72.4    25    4.8   286     8.6   854.7    0.00 
 204    7:40   0.34   72.8    24    7.4   272    11.2   854.7    0.00 
 204    7:50   0.40   73.4    23    7.2   254    11.2   854.8    0.00 
 204    8:00   0.28   73.8    23    7.0   270     9.7   854.9    0.00 
 204    8:10   0.41   73.6    25    7.1   291    10.1   854.9    0.00 
 204    8:20   0.46   75.0    24    5.4   294    10.2   854.8    0.00 
 204    8:30   0.66   76.4    22    4.2   270    10.7   854.7    0.00 
 204    8:40   0.56   76.9    20    6.2   270    15.4   854.6    0.00 
 204    8:50   0.66   76.5    22    5.0   345     9.2   854.6    0.00 
 204    9:00   0.77   77.0    23    4.0     2     7.7   854.6    0.00 
 204    9:10   0.81   77.6    22    3.8    20     7.0   854.6    0.00 
 204    9:20   0.87   78.7    18    4.5   332    11.8   854.5    0.00 
 204    9:30   0.83   80.3    17    4.9   292    11.4   854.6    0.00 
 204    9:40   0.84   81.4    14    8.7   276    15.9   854.5    0.00 
 204    9:50   0.87   81.2    13    7.4   240    13.4   854.5    0.00 
 204   10:00   0.90   82.4    13    7.7   262    13.0   854.4    0.00 
 204   10:10   0.91   83.0    13    8.0   265    14.0   854.3    0.00 
 204   10:20   0.92   83.0    13    5.1   244    15.5   854.3    0.00 
 204   10:30   0.95   83.5    12    6.3   295    12.4   854.3    0.00 
 204   10:40   0.98   83.5    13    6.6   329    13.2   854.1    0.00 
 204   10:50   0.95   85.0    12    8.8   283    15.3   854.0    0.00 
 204   11:00   0.83   86.0    12   10.6   284    20.2   853.9    0.00 
 204   11:10   1.01   85.9    12   12.1   275    18.7   853.9    0.00 
 204   11:20   0.94   85.9    12   11.3   264    18.2   853.8    0.00 
 204   11:30   1.05   86.8    12   13.1   279    21.3   853.7    0.00 
 204   11:40   1.03   86.4    12   10.7   258    22.3   853.7    0.00 
 204   11:50   0.71   87.6    11   14.6   265    22.9   853.5    0.00 
 204   12:00   1.07   87.9    11   16.2   274    24.2   853.4    0.00 
 204   12:10   0.96   87.5    11   14.3   262    20.8   853.4    0.00 
 204   12:20   1.06   87.8    10   12.1   270    22.6   853.4    0.00 
 204   12:30   0.81   88.2    10   12.8   268    25.1   853.3    0.00 
 204   12:40   1.06   87.7    10   11.9   262    19.8   853.2    0.00 
 204   12:50   1.04   89.3     9   14.8   268    24.7   853.1    0.00 
 204   13:00   1.04   89.0     9   17.5   268    25.8   853.0    0.00 
 204   13:10   1.00   89.4     9   17.3   273    24.3   852.9    0.00 
 204   13:20   1.03   89.8     9   17.4   270    30.3   852.7    0.00 
 204   13:30   0.97   89.4     9   18.5   278    26.2   852.6    0.00 
 204   13:40   1.01   89.8     9   16.2   273    24.0   852.6    0.00 
 204   13:50   0.99   90.0     9   16.1   268    24.5   852.5    0.00 
 204   14:00   0.95   89.8     9   15.6   263    24.5   852.5    0.00 
 204   14:10   0.93   90.0     9   16.3   248    24.9   852.5    0.00 
 204   14:20   0.91   89.6     9   18.0   252    25.7   852.3    0.00 
 204   14:30   0.92   89.6     9   17.0   258    27.8   852.3    0.00 
 204   14:40   0.89   89.9    10   16.9   268    26.4   852.2    0.00 
 204   14:50   0.87   89.8    10   17.0   264    25.1   852.2    0.00 
 204   15:00   0.84   89.9    10   16.4   258    24.5   852.1    0.00 
 204   15:10   0.81   89.8    10   18.7   257    28.9   851.9    0.00 
 204   15:20   0.68   89.5    11   17.7   258    25.0   851.9    0.00 
 204   15:30   0.75   89.0    11   16.8   265    24.8   851.8    0.00 
 204   15:40   0.71   88.8    12   17.9   267    27.2   851.7    0.00 
 204   15:50   0.69   88.6    12   16.6   266    23.9   851.7    0.00 
 204   16:00   0.66   88.6    13   17.4   259    23.9   851.7    0.00 
 204   16:10   0.62   88.0    13   17.2   260    25.3   851.7    0.00 
 204   16:20   0.59   87.9    13   17.8   269    26.4   851.7    0.00 
 204   16:30   0.56   87.4    13   17.8   258    26.0   851.7    0.00 
 204   16:40   0.52   87.2    13   17.5   266    25.1   851.6    0.00 
 204   16:50   0.49   86.9    14   18.3   271    26.2   851.6    0.00 
 204   17:00   0.45   86.9    14   14.6   259    22.6   851.7    0.00 
 204   17:10   0.42   86.3    14   15.7   266    22.8   851.7    0.00 
 204   17:20   0.39   86.0    14   14.3   261    20.3   851.7    0.00 
 204   17:30   0.33   85.5    14   13.7   261    20.5   851.8    0.00 
 204   17:40   0.31   85.1    14   13.7   266    23.7   851.9    0.00 
 204   17:50   0.28   84.8    14   12.4   264    18.5   852.0    0.00 
 204   18:00   0.24   84.5    15   11.2   274    16.1   852.0    0.00 
 204   18:10   0.21   84.1    15   11.8   264    17.8   852.1    0.00 
 204   18:20   0.17   83.3    15   11.3   263    17.8   852.1    0.00 
 204   18:30   0.14   82.7    16   10.7   263    15.6   852.1    0.00 
 204   18:40   0.11   82.1    16   11.7   264    17.1   852.1    0.00 
 204   18:50   0.04   81.1    17   10.3   265    17.2   852.2    0.00 
 204   19:00   0.01   79.5    20    8.5   286    12.9   852.3    0.00 
 204   19:10   0.01   77.4    24    7.7   286    12.6   852.4    0.00 
 204   19:20   0.01   77.7    24    8.3   274    13.3   852.5    0.00 
 204   19:30   0.00   76.1    26    6.8   270    11.7   852.5    0.00 
 204   19:40   0.00   76.6    26    6.6   267    10.9   852.6    0.00 
 204   19:50   0.00   74.2    28    3.8   259     6.0   852.8    0.00 
 204   20:00   0.00   74.2    29    6.9   248     9.6   852.8    0.00 
 204   20:10   0.00   74.4    29    6.7   252     9.2   852.9    0.00 
 204   20:20   0.00   74.2    29    7.9   256    11.9   852.9    0.00 
 204   20:30   0.00   74.2    29   10.5   261    15.1   852.8    0.00 
 204   20:40   0.00   74.2    28   12.2   258    16.7   852.8    0.00 
 204   20:50   0.00   73.9    28   13.1   259    17.9   852.7    0.00 
 204   21:00   0.00   73.9    28   14.7   263    21.0   852.6    0.00 
 204   21:10   0.00   73.7    28   14.2   260    19.9   852.6    0.00 
 204   21:20   0.00   72.5    30    6.3   174    15.6   853.0    0.00 
 204   21:30   0.00   72.0    30    4.8   191    10.4   853.0    0.00 
 204   21:40   0.00   72.4    29    7.6   207    11.8   853.0    0.00 
 204   21:50   0.00   72.5    28    7.7   217    15.3   852.9    0.00 
 204   22:00   0.00   68.3    36    5.8   178    11.0   852.9    0.00 
 204   22:10   0.00   68.0    36    6.7   155    12.2   853.0    0.00 
 204   22:20   0.00   67.6    36    8.1   158    13.7   853.1    0.00 
 204   22:30   0.00   68.9    33    7.4   147    11.9   853.1    0.00 
 204   22:40   0.00   65.1    42    6.0   168     8.4   853.3    0.00 
 204   22:50   0.00   64.7    41    5.9   166     9.0   853.2    0.00 
 204   23:00   0.00   64.0    43    4.0   174     6.3   853.2    0.00 
 204   23:10   0.00   63.1    45    5.9   146     8.1   853.2    0.00 
 204   23:20   0.00   61.4    49    4.8   165     6.6   853.2    0.00 
 204   23:30   0.00   60.4    53    4.1   144     6.0   853.1    0.00 
 204   23:40   0.00   57.7    59    4.9   146     7.3   853.2    0.00 
 204   23:50   0.00   56.7    60    5.2   145     6.4   853.2    0.00 
 205    0:00   0.00   56.5    58    5.7   156     6.9   853.2    0.00 
 205    0:10   0.00   56.0    57    3.5   186     6.1   853.2    0.00 
 205    0:20   0.00   55.6    58    4.3   164     5.8   853.2    0.00 
 205    0:30   0.00   54.8    59    5.5   177     7.4   853.1    0.00 
 205    0:40   0.00   53.8    62    5.3   166     7.1   853.2    0.00 
 205    0:50   0.00   53.2    63    5.1   166     6.6   853.2    0.00 
 205    1:00   0.00   54.4    57    5.7   173     7.7   853.2    0.00 
 205    1:10   0.00   56.9    50    6.6   169     9.3   853.3    0.00 
 205    1:20   0.00   56.3    52    6.1   158     9.2   853.3    0.00 
 205    1:30   0.00   56.0    53    5.4   149     8.4   853.3    0.00 
 205    1:40   0.00   55.7    54    5.1   151     6.9   853.3    0.00 
 205    1:50   0.00   54.1    59    5.7   152     6.9   853.3    0.00 
 205    2:00   0.00   52.6    63    5.0   154     6.6   853.3    0.00 
 205    2:10   0.00   53.0    59    5.9   150     7.4   853.3    0.00 
 205    2:20   0.00   53.0    59    5.5   153     7.2   853.3    0.00 
 205    2:30   0.00   52.2    62    4.7   160     6.1   853.3    0.00 
 205    2:40   0.00   51.1    65    5.1   162     6.3   853.2    0.00 
 205    2:50   0.00   52.7    58    6.5   151     8.0   853.3    0.00 
 205    3:00   0.00   53.4    56    5.7   154     7.0   853.3    0.00 
 205    3:10   0.00   52.5    58    5.5   154     6.9   853.3    0.00 
 205    3:20   0.00   53.1    55    5.6   152     7.7   853.3    0.00 
 205    3:30   0.00   52.9    55    5.4   149     6.9   853.3    0.00 
 205    3:40   0.00   52.7    55    5.9   150     7.3   853.4    0.00 
 205    3:50   0.00   52.7    54    5.6   157     7.1   853.4    0.00 
 205    4:00   0.00   51.4    58    4.2   159     5.3   853.5    0.00 
 205    4:10   0.00   50.6    60    6.0   164     7.5   853.6    0.00 
 205    4:20   0.00   50.7    60    6.5   160     7.6   853.7    0.00 
 205    4:30   0.00   50.3    60    6.6   161     8.0   853.7    0.00 
 205    4:40   0.00   50.3    60    4.4   194     7.8   853.8    0.00 
 205    4:50   0.00   51.4    57    7.0   164     9.9   853.8    0.00 
 205    5:00   0.01   50.8    59    5.0   176     6.4   854.0    0.00 
 205    5:10   0.02   50.1    61    3.5   199     4.8   854.1    0.00 
 205    5:20   0.04   50.3    61    3.4   161     5.1   854.2    0.00 
 205    5:30   0.06   52.7    56    5.2   153     6.4   854.4    0.00 
 205    5:40   0.08   54.2    53    5.4   156     7.2   854.3    0.00 
 205    5:50   0.11   56.2    51    3.2   138     5.8   854.3    0.00 
 205    6:00   0.13   57.2    48    1.9   121     4.7   854.3    0.00 
 205    6:10   0.16   58.8    46    1.8   301     3.1   854.3    0.00 
 205    6:20   0.19   59.8    44    3.1   197     5.0   854.4    0.00 
 205    6:30   0.23   61.7    42    2.2   209     3.4   854.5    0.00 
 205    6:40   0.26   63.9    35    1.7   250     3.8   854.5    0.00 

Return to Smith Valley graphs page.


Western Regional Climate Center,wrcc@dri.edu